KFRG/FRG METAR and TAF weather

Enter ICAO airport designator
Station Type Date Time Source
KFRG METAR 2021/09/24 00:00 UTC NOAA

KFRG 240000Z 15018G26KT 9SM -RA SCT027 BKN033 OVC060 24/22 A2994 RMK AO2 PK WND 15026/2358 LTG DSNT W P0000 T02390217


Station Type Date Time Source
KFRG Decoded METAR 2021/09/24 00:00 UTC NOAA

FARMINGDALE REPUBLIC AIRPORT , NY, United States (KFRG) 40-44N 073-25W 21M
Sep 23, 2021 - 08:00 PM EDT / 2021.09.24 0000 UTC
Wind: from the SSE (150 degrees) at 21 MPH (18 KT) gusting to 30 MPH (26 KT):0
Visibility: 9 mile(s):0
Sky conditions: overcast
Weather: light rain; Lightning observed
Precipitation last hour: A trace
Temperature: 75.0 F (23.9 C)
Dew Point: 71.1 F (21.7 C)
Relative Humidity: 87%
Pressure (altimeter): 29.94 in. Hg (1013 hPa)
ob: KFRG 240000Z 15018G26KT 9SM -RA SCT027 BKN033 OVC060 24/22 A2994 RMK AO2 PK WND 15026/2358 LTG DSNT W P0000 T02390217
cycle: 0

Station Type Date Time Source
KFRG TAF UTC NOAA

Error!

Example: see airport list